Time;durP1;ratioP1;P1;durP2;ratioP2;P2;SDS_P1;SDS_P2;PMS_P1;PMS_P2;Temp;Humidity;BMP_temperature;BMP_pressure;BME280_temperature;BME280_humidity;BME280_pressure;Samples;Min_cycle;Max_cycle;Signal;HPM_P1;HPM_P2
2023/05/05 00:01:24;;;;;;;8.95;5.10;;;11.90;99.90;;;;;;5014833;28;20050;-69
2023/05/05 00:03:51;;;;;;;7.03;4.20;;;11.90;99.90;;;;;;5014544;28;20046;-68
2023/05/05 00:06:16;;;;;;;7.07;5.38;;;11.90;99.90;;;;;;5014808;28;20034;-68
2023/05/05 00:08:42;;;;;;;7.07;4.72;;;11.80;99.90;;;;;;4997793;28;20060;-68
2023/05/05 00:11:08;;;;;;;7.47;5.45;;;11.80;99.90;;;;;;5015085;28;20052;-68
2023/05/05 00:13:34;;;;;;;7.22;4.75;;;11.80;99.90;;;;;;5014786;28;20042;-68
2023/05/05 00:15:59;;;;;;;6.40;4.53;;;11.70;99.90;;;;;;5015106;28;20153;-68
2023/05/05 00:18:25;;;;;;;7.55;4.63;;;11.70;99.90;;;;;;5014999;28;20474;-68
2023/05/05 00:20:51;;;;;;;6.68;4.43;;;11.70;99.90;;;;;;4997039;28;20046;-68
2023/05/05 00:23:18;;;;;;;7.07;4.50;;;11.70;99.90;;;;;;5014578;28;20042;-68
2023/05/05 00:25:44;;;;;;;5.90;4.82;;;11.70;99.90;;;;;;5014511;28;20046;-68
2023/05/05 00:28:10;;;;;;;5.68;5.10;;;11.70;99.90;;;;;;5014364;28;20073;-68
2023/05/05 00:30:36;;;;;;;8.02;5.00;;;11.70;99.90;;;;;;5014351;28;20455;-68
2023/05/05 00:33:02;;;;;;;7.25;4.68;;;11.70;99.90;;;;;;5014113;28;20131;-68
2023/05/05 00:35:28;;;;;;;6.68;4.97;;;11.60;99.90;;;;;;5014127;28;20104;-68
2023/05/05 00:37:54;;;;;;;6.82;4.85;;;11.60;99.90;;;;;;5014343;28;20046;-68
2023/05/05 00:40:20;;;;;;;6.50;5.07;;;11.60;99.90;;;;;;5014274;28;20052;-68
2023/05/05 00:42:49;;;;;;;7.35;5.15;;;11.50;99.90;;;;;;5013898;28;20046;-68
2023/05/05 00:45:15;;;;;;;5.80;4.53;;;11.50;99.90;;;;;;4996765;28;20507;-68
2023/05/05 00:47:46;;;;;;;6.30;5.05;;;11.40;99.90;;;;;;4996656;28;20404;-68
2023/05/05 00:50:24;;;;;;;10.93;6.15;;;11.40;99.90;;;;;;5014053;28;20495;-68
2023/05/05 00:52:53;;;;;;;8.82;5.68;;;11.30;99.90;;;;;;5014261;28;20050;-68
2023/05/05 00:55:19;;;;;;;8.23;5.35;;;11.20;99.90;;;;;;5013886;28;20077;-68
2023/05/05 00:57:45;;;;;;;7.78;5.00;;;11.20;99.90;;;;;;5013747;28;20147;-68
2023/05/05 01:00:12;;;;;;;6.95;4.90;;;11.20;99.90;;;;;;5013819;28;20460;-69
2023/05/05 01:02:38;;;;;;;6.65;5.00;;;11.20;99.90;;;;;;5013928;28;20046;-68
2023/05/05 01:05:05;;;;;;;6.38;4.65;;;11.20;99.90;;;;;;4996535;28;20406;-68
2023/05/05 01:08:01;;;;;;;5.35;4.68;;;11.20;99.90;;;;;;5014005;28;20076;-68
2023/05/05 01:10:49;;;;;;;6.07;4.50;;;11.20;99.90;;;;;;5013671;28;20089;-68
2023/05/05 01:13:40;;;;;;;7.80;5.30;;;11.20;99.90;;;;;;5013701;28;20053;-68
2023/05/05 01:16:06;;;;;;;7.07;5.00;;;11.20;99.90;;;;;;4996610;28;20050;-68
2023/05/05 01:18:57;;;;;;;7.63;5.93;;;11.20;99.90;;;;;;5013600;28;20530;-68
2023/05/05 01:21:47;;;;;;;7.50;5.57;;;11.20;99.90;;;;;;5014192;28;20145;-68
2023/05/05 01:24:18;;;;;;;6.95;5.22;;;11.20;99.90;;;;;;5013704;28;20121;-68
2023/05/05 01:26:53;;;;;;;6.07;4.65;;;11.20;99.90;;;;;;5013346;28;20049;-68
2023/05/05 01:29:29;;;;;;;8.05;5.05;;;11.20;99.90;;;;;;5013033;28;20479;-68
2023/05/05 01:32:06;;;;;;;5.85;4.90;;;11.20;99.90;;;;;;5013290;28;20128;-67
2023/05/05 01:34:42;;;;;;;7.10;5.35;;;11.20;99.90;;;;;;5013101;28;20129;-68
2023/05/05 01:37:40;;;;;;;6.75;4.95;;;11.30;99.90;;;;;;5013203;28;20085;-68
2023/05/05 01:40:09;;;;;;;7.90;4.75;;;11.30;99.90;;;;;;5007266;28;20053;-68
2023/05/05 01:42:36;;;;;;;6.63;4.82;;;11.30;99.90;;;;;;5013716;28;20104;-68
2023/05/05 01:45:06;;;;;;;6.13;4.45;;;11.40;99.90;;;;;;5013003;28;20044;-68
2023/05/05 01:47:33;;;;;;;6.53;5.28;;;11.40;99.90;;;;;;5013498;28;20050;-68
2023/05/05 01:50:00;;;;;;;5.22;4.68;;;11.40;99.90;;;;;;4995533;28;20056;-68
2023/05/05 01:52:28;;;;;;;9.48;4.95;;;11.50;99.90;;;;;;5013189;28;20057;-67
2023/05/05 01:54:55;;;;;;;6.95;4.25;;;11.50;99.90;;;;;;5012865;28;20042;-68
2023/05/05 01:57:24;;;;;;;7.43;4.95;;;11.50;99.90;;;;;;5012806;28;20518;-68
2023/05/05 01:59:52;;;;;;;8.02;4.65;;;11.50;99.90;;;;;;5012855;28;20558;-68
2023/05/05 02:02:20;;;;;;;5.72;4.10;;;11.60;99.90;;;;;;5012708;28;20050;-68
2023/05/05 02:04:48;;;;;;;6.82;5.20;;;11.60;99.90;;;;;;5013143;28;20054;-68
2023/05/05 02:07:15;;;;;;;7.38;5.10;;;11.60;99.90;;;;;;5012975;28;20093;-68
2023/05/05 02:09:43;;;;;;;6.07;4.50;;;11.60;99.90;;;;;;5012617;28;20046;-68
2023/05/05 02:12:10;;;;;;;8.73;5.32;;;11.60;99.90;;;;;;5012593;28;20053;-68
2023/05/05 02:14:37;;;;;;;5.97;5.05;;;11.60;99.90;;;;;;4994992;28;20050;-68
2023/05/05 02:17:03;;;;;;;5.20;4.47;;;11.60;99.90;;;;;;4995195;28;20050;-68
2023/05/05 02:19:37;;;;;;;5.30;4.35;;;11.60;99.90;;;;;;5013159;28;20054;-68
2023/05/05 02:22:02;;;;;;;;;;;11.60;99.90;;;;;;5013081;28;20494;-68
2023/05/05 02:24:29;;;;;;;6.10;5.18;;;11.50;99.90;;;;;;5012564;28;19922;-68
2023/05/05 02:26:56;;;;;;;6.75;5.18;;;11.60;99.90;;;;;;5012658;28;20507;-68
2023/05/05 02:29:29;;;;;;;5.28;4.65;;;11.60;99.90;;;;;;5012131;28;20505;-68
2023/05/05 02:32:01;;;;;;;5.10;4.40;;;11.60;99.90;;;;;;4995619;28;20108;-68
2023/05/05 02:34:29;;;;;;;5.53;5.03;;;11.60;99.90;;;;;;5015245;28;20520;-68
2023/05/05 02:36:57;;;;;;;4.95;4.45;;;11.60;99.90;;;;;;4999151;28;20189;-68
2023/05/05 02:39:42;;;;;;;7.78;5.03;;;11.60;99.90;;;;;;5016461;28;20091;-69
2023/05/05 02:42:11;;;;;;;6.45;4.78;;;11.60;99.90;;;;;;5016410;28;20046;-68
2023/05/05 02:44:41;;;;;;;10.10;4.95;;;11.50;99.90;;;;;;5016076;28;20132;-67
2023/05/05 02:47:07;;;;;;;7.82;5.03;;;11.50;99.90;;;;;;4998725;28;20097;-69
2023/05/05 02:49:32;;;;;;;11.40;5.45;;;11.50;99.90;;;;;;5016328;28;20100;-68
2023/05/05 02:51:59;;;;;;;5.53;4.82;;;11.50;99.90;;;;;;5016199;28;20096;-68
2023/05/05 02:54:27;;;;;;;8.23;5.22;;;11.40;99.90;;;;;;5016097;28;20406;-68
2023/05/05 02:56:55;;;;;;;5.32;4.82;;;11.40;99.90;;;;;;5016029;28;20092;-68
2023/05/05 02:59:48;;;;;;;6.40;5.35;;;11.40;99.90;;;;;;4998621;28;20128;-68
2023/05/05 03:02:39;;;;;;;6.38;4.63;;;11.40;99.90;;;;;;5016387;28;20060;-68
2023/05/05 03:05:10;;;;;;;6.95;5.15;;;11.30;99.90;;;;;;5016392;28;20061;-68
2023/05/05 03:07:47;;;;;;;7.45;4.85;;;11.30;99.90;;;;;;5016598;28;20045;-68
2023/05/05 03:10:17;;;;;;;8.90;5.00;;;11.30;99.90;;;;;;5015957;28;20050;-68
2023/05/05 03:12:58;;;;;;;10.85;4.95;;;11.30;99.90;;;;;;5015899;28;20049;-68
2023/05/05 03:15:39;;;;;;;9.73;5.50;;;11.30;99.90;;;;;;5015780;28;20082;-68
2023/05/05 03:18:07;;;;;;;9.02;5.32;;;11.20;99.90;;;;;;5016527;28;20111;-67
2023/05/05 03:20:33;;;;;;;6.97;5.35;;;11.20;99.90;;;;;;4982414;28;20076;-68
2023/05/05 03:23:01;;;;;;;6.25;5.28;;;11.20;99.90;;;;;;4998157;28;20054;-68
2023/05/05 03:25:49;;;;;;;6.70;5.00;;;11.20;99.90;;;;;;5016156;28;20045;-68
2023/05/05 03:28:15;;;;;;;5.60;4.95;;;11.20;99.90;;;;;;5015731;28;20045;-69
2023/05/05 03:30:41;;;;;;;6.93;5.38;;;11.10;99.90;;;;;;5015963;28;20558;-68
2023/05/05 03:33:09;;;;;;;6.25;5.32;;;11.10;99.90;;;;;;5015290;28;20483;-68
2023/05/05 03:35:34;;;;;;;6.35;4.75;;;11.00;99.90;;;;;;5015350;28;20054;-68
2023/05/05 03:38:00;;;;;;;7.28;5.28;;;11.00;99.90;;;;;;5015314;28;20050;-68
2023/05/05 03:40:26;;;;;;;9.30;5.82;;;11.00;99.90;;;;;;5015331;28;20056;-68
2023/05/05 03:42:51;;;;;;;8.65;5.22;;;10.90;99.90;;;;;;5015665;28;20042;-68
2023/05/05 03:45:17;;;;;;;7.47;5.53;;;10.90;99.90;;;;;;5014643;28;20475;-67
2023/05/05 03:47:43;;;;;;;7.90;4.90;;;10.80;99.90;;;;;;5015110;28;20050;-68
2023/05/05 03:50:09;;;;;;;5.75;5.25;;;10.80;99.90;;;;;;5015518;28;20049;-68
2023/05/05 03:52:34;;;;;;;7.10;5.40;;;10.80;99.90;;;;;;5015595;28;20052;-68
2023/05/05 03:55:00;;;;;;;5.53;5.03;;;10.80;99.90;;;;;;5015165;28;20052;-68
2023/05/05 03:57:26;;;;;;;7.28;5.03;;;10.90;99.90;;;;;;5015451;28;20541;-68
2023/05/05 03:59:52;;;;;;;8.40;4.32;;;10.90;99.90;;;;;;4998336;28;20077;-68
2023/05/05 04:02:18;;;;;;;9.63;5.00;;;10.90;99.90;;;;;;5014905;28;20052;-68
2023/05/05 04:04:44;;;;;;;6.82;4.82;;;11.00;99.90;;;;;;5014909;28;20056;-68
2023/05/05 04:07:10;;;;;;;6.03;5.32;;;11.10;99.90;;;;;;5014686;28;20050;-68
2023/05/05 04:09:43;;;;;;;5.75;4.95;;;11.10;99.90;;;;;;5014773;28;20050;-68
2023/05/05 04:12:09;;;;;;;6.38;5.07;;;11.10;99.90;;;;;;4997861;28;20141;-67
2023/05/05 04:14:35;;;;;;;11.23;5.70;;;11.60;99.90;;;;;;5014968;28;20042;-68
2023/05/05 04:17:01;;;;;;;6.57;5.30;;;11.20;99.90;;;;;;5015045;28;20579;-68
2023/05/05 04:19:26;;;;;;;7.35;6.32;;;11.20;99.90;;;;;;4997242;28;20108;-68
2023/05/05 04:21:52;;;;;;;6.63;5.55;;;11.10;99.90;;;;;;5014606;28;20057;-67
2023/05/05 04:24:21;;;;;;;8.32;6.10;;;11.10;99.90;;;;;;5014877;28;20057;-68
2023/05/05 04:26:47;;;;;;;6.38;5.38;;;11.10;99.90;;;;;;5014733;28;20455;-68
2023/05/05 04:29:13;;;;;;;6.47;5.88;;;10.90;99.90;;;;;;5014641;28;20054;-68
2023/05/05 04:31:39;;;;;;;9.82;6.47;;;10.90;99.90;;;;;;5014117;28;20053;-68
2023/05/05 04:34:04;;;;;;;10.48;6.88;;;10.80;99.90;;;;;;5014305;28;20112;-68
2023/05/05 04:36:30;;;;;;;8.48;6.80;;;10.80;99.90;;;;;;5014146;28;20050;-68
2023/05/05 04:38:56;;;;;;;10.70;6.32;;;10.80;99.90;;;;;;5014424;28;20045;-68
2023/05/05 04:41:21;;;;;;;13.75;7.90;;;10.80;99.90;;;;;;5014543;28;20431;-69
2023/05/05 04:43:47;;;;;;;10.50;7.80;;;10.80;99.90;;;;;;5014119;28;20128;-69
2023/05/05 04:46:13;;;;;;;9.00;7.43;;;10.80;99.90;;;;;;5014426;28;20060;-69
2023/05/05 04:48:38;;;;;;;9.85;7.32;;;10.70;99.90;;;;;;4996611;28;20042;-69
2023/05/05 04:51:05;;;;;;;8.25;7.20;;;10.70;99.90;;;;;;5013936;28;20125;-69
2023/05/05 04:53:31;;;;;;;11.60;7.78;;;10.70;99.90;;;;;;5013990;28;20142;-69
2023/05/05 04:55:58;;;;;;;12.48;7.47;;;10.60;99.90;;;;;;4996313;28;20141;-69
2023/05/05 04:58:23;;;;;;;9.20;7.28;;;10.60;99.90;;;;;;5013179;28;20100;-69
2023/05/05 05:00:49;;;;;;;11.20;7.10;;;10.50;99.90;;;;;;4996291;28;20125;-69
2023/05/05 05:03:15;;;;;;;10.35;8.30;;;10.40;99.90;;;;;;4996088;28;20466;-69
2023/05/05 05:05:41;;;;;;;14.52;7.97;;;10.40;99.90;;;;;;5013374;28;20065;-69
2023/05/05 05:08:07;;;;;;;10.10;7.35;;;10.30;99.90;;;;;;5014238;28;20437;-69
2023/05/05 05:10:33;;;;;;;12.85;7.30;;;10.40;99.90;;;;;;5013658;28;20367;-70
2023/05/05 05:12:59;;;;;;;9.77;7.72;;;10.40;99.90;;;;;;5013428;28;20053;-69
2023/05/05 05:15:25;;;;;;;12.68;7.93;;;10.40;99.90;;;;;;5012995;28;20056;-69
2023/05/05 05:17:50;;;;;;;12.73;8.02;;;10.30;99.90;;;;;;5013453;28;20107;-70
2023/05/05 05:20:16;;;;;;;13.80;8.98;;;10.30;99.90;;;;;;5013590;28;20088;-70
2023/05/05 05:22:42;;;;;;;14.68;8.73;;;10.20;99.90;;;;;;4996373;28;20100;-70
2023/05/05 05:25:08;;;;;;;12.35;7.88;;;10.20;99.90;;;;;;5013632;28;20046;-71
2023/05/05 05:27:33;;;;;;;13.23;8.38;;;10.20;99.90;;;;;;5013302;28;20383;-70
2023/05/05 05:29:59;;;;;;;10.88;7.50;;;10.10;99.90;;;;;;4995967;28;20048;-71
2023/05/05 05:32:25;;;;;;;12.38;9.48;;;10.20;99.90;;;;;;5012821;28;20054;-70
2023/05/05 05:34:50;;;;;;;9.35;7.63;;;10.20;99.90;;;;;;4995212;28;20072;-71
2023/05/05 05:37:16;;;;;;;10.25;8.38;;;10.20;99.90;;;;;;5013403;28;20124;-71
2023/05/05 05:39:42;;;;;;;9.27;7.80;;;10.20;99.90;;;;;;5012986;28;20176;-72
2023/05/05 05:42:07;;;;;;;11.32;8.40;;;10.20;99.90;;;;;;5012545;28;20057;-71
2023/05/05 05:44:33;;;;;;;13.10;9.05;;;10.10;99.90;;;;;;4995457;28;20061;-72
2023/05/05 05:46:59;;;;;;;10.32;8.65;;;10.10;99.90;;;;;;5013165;28;20081;-72
2023/05/05 05:49:24;;;;;;;13.50;9.10;;;10.10;99.90;;;;;;5012824;28;20054;-73
2023/05/05 05:51:50;;;;;;;13.90;8.60;;;10.00;99.90;;;;;;5013066;28;20046;-72
2023/05/05 05:54:16;;;;;;;10.52;8.77;;;10.10;99.90;;;;;;5012831;28;20077;-73
2023/05/05 05:56:41;;;;;;;11.85;9.27;;;10.10;99.90;;;;;;5013207;28;20062;-74
2023/05/05 05:59:08;;;;;;;10.75;8.88;;;10.20;99.90;;;;;;5012761;28;20046;-72
2023/05/05 06:01:34;;;;;;;11.85;8.88;;;10.20;99.90;;;;;;5012644;28;20053;-73
2023/05/05 06:04:00;;;;;;;13.57;8.48;;;10.30;99.90;;;;;;5012425;28;20057;-73
2023/05/05 06:06:26;;;;;;;12.45;8.68;;;10.30;99.90;;;;;;5012642;28;20074;-73
2023/05/05 06:08:52;;;;;;;11.18;8.50;;;10.40;99.90;;;;;;5012469;28;20117;-72
2023/05/05 06:11:18;;;;;;;11.52;9.32;;;10.40;99.90;;;;;;5012309;28;20163;-73
2023/05/05 06:13:44;;;;;;;10.32;8.35;;;10.40;99.90;;;;;;4995277;28;20196;-73
2023/05/05 06:16:09;;;;;;;10.10;8.35;;;10.50;99.90;;;;;;4995102;28;20057;-73
2023/05/05 06:18:35;;;;;;;10.82;8.20;;;10.50;99.90;;;;;;5012573;28;20133;-72
2023/05/05 06:21:01;;;;;;;9.65;8.00;;;10.60;99.90;;;;;;5012422;28;20050;-72
2023/05/05 06:23:27;;;;;;;10.88;8.07;;;10.60;99.90;;;;;;5012374;28;20046;-73
2023/05/05 06:25:54;;;;;;;11.95;8.25;;;10.60;99.90;;;;;;4995081;28;20592;-73
2023/05/05 06:28:20;;;;;;;11.85;8.98;;;10.70;99.90;;;;;;5012533;28;20050;-72
2023/05/05 06:30:45;;;;;;;10.63;9.52;;;10.80;99.90;;;;;;5012959;28;20176;-73
2023/05/05 06:33:11;;;;;;;11.35;8.75;;;10.90;99.90;;;;;;5012250;28;20418;-72
2023/05/05 06:35:37;;;;;;;10.57;9.02;;;11.20;99.90;;;;;;5012662;28;20081;-73
2023/05/05 06:38:03;;;;;;;16.98;9.30;;;11.50;99.90;;;;;;5012119;28;20054;-72
2023/05/05 06:40:28;;;;;;;14.73;9.00;;;11.90;99.90;;;;;;5012427;28;20050;-73
2023/05/05 06:42:54;;;;;;;10.60;7.68;;;12.40;99.90;;;;;;4995598;28;20046;-72
2023/05/05 06:45:20;;;;;;;8.77;7.95;;;13.00;99.90;;;;;;5012399;28;20188;-72
2023/05/05 06:47:45;;;;;;;9.90;7.22;;;13.40;99.90;;;;;;5012331;28;20053;-73
2023/05/05 06:50:11;;;;;;;12.25;8.18;;;13.50;99.90;;;;;;4994780;28;20041;-72
2023/05/05 06:52:37;;;;;;;9.85;7.75;;;13.30;99.90;;;;;;5012392;28;20077;-73
2023/05/05 06:55:03;;;;;;;10.15;7.82;;;13.20;99.90;;;;;;5012648;28;20046;-72
2023/05/05 06:57:29;;;;;;;12.27;9.05;;;13.10;99.90;;;;;;4994767;28;20049;-73
2023/05/05 06:59:54;;;;;;;9.60;8.27;;;13.00;99.90;;;;;;5012319;28;20057;-73
2023/05/05 07:02:20;;;;;;;13.27;9.18;;;12.90;99.90;;;;;;5012272;28;20455;-73
2023/05/05 07:04:46;;;;;;;11.68;8.05;;;12.80;99.90;;;;;;5012161;28;20453;-72
2023/05/05 07:07:11;;;;;;;14.20;8.25;;;12.70;99.90;;;;;;4995101;28;20065;-72
2023/05/05 07:09:37;;;;;;;10.02;8.95;;;12.70;99.90;;;;;;5012464;28;20525;-73
2023/05/05 07:12:03;;;;;;;9.95;8.95;;;12.70;99.90;;;;;;5012591;28;20054;-72
2023/05/05 07:14:29;;;;;;;10.57;8.32;;;13.00;99.90;;;;;;5012111;28;20088;-73
2023/05/05 07:16:55;;;;;;;11.43;8.38;;;13.30;99.90;;;;;;5011994;28;20197;-72
2023/05/05 07:19:21;;;;;;;10.57;9.35;;;13.30;99.90;;;;;;5012112;28;20654;-72
2023/05/05 07:21:46;;;;;;;9.18;7.47;;;13.70;99.90;;;;;;5014607;28;20065;-72
2023/05/05 07:24:12;;;;;;;10.50;7.95;;;14.50;99.90;;;;;;5016061;28;20073;-73
2023/05/05 07:26:38;;;;;;;9.25;8.07;;;15.80;99.90;;;;;;4998150;28;20073;-73
2023/05/05 07:29:05;;;;;;;8.40;6.85;;;16.90;99.90;;;;;;5015978;28;20097;-73
2023/05/05 07:31:31;;;;;;;8.30;6.93;;;18.00;99.90;;;;;;5016140;28;20042;-73
2023/05/05 07:33:57;;;;;;;8.52;6.30;;;18.60;99.90;;;;;;5015699;28;20497;-73
2023/05/05 07:36:23;;;;;;;10.50;6.68;;;19.20;99.90;;;;;;5015721;28;20054;-73
2023/05/05 07:38:48;;;;;;;9.65;6.53;;;19.50;99.90;;;;;;5015483;28;20132;-73
2023/05/05 07:41:15;;;;;;;10.10;6.93;;;19.70;99.90;;;;;;5015402;28;20085;-73
2023/05/05 07:43:41;;;;;;;12.15;6.90;;;20.00;99.90;;;;;;5016088;28;20049;-73
2023/05/05 07:46:07;;;;;;;7.00;6.07;;;20.30;99.90;;;;;;5015310;28;20088;-73
2023/05/05 07:48:33;;;;;;;8.13;6.60;;;20.40;99.90;;;;;;5015390;28;20404;-73
2023/05/05 07:50:58;;;;;;;7.35;6.35;;;20.20;99.90;;;;;;5015278;28;20053;-73
2023/05/05 07:53:24;;;;;;;8.57;6.53;;;19.80;99.90;;;;;;5015252;28;20057;-73
2023/05/05 07:55:50;;;;;;;7.75;6.03;;;19.70;99.90;;;;;;5015151;28;20042;-73
2023/05/05 07:58:15;;;;;;;8.10;6.53;;;20.10;99.90;;;;;;4998069;28;20492;-73
2023/05/05 08:00:42;;;;;;;7.47;6.45;;;20.50;99.90;;;;;;5015137;28;20120;-72
2023/05/05 08:03:08;;;;;;;9.30;6.25;;;20.90;99.90;;;;;;5015000;28;20050;-73
2023/05/05 08:05:34;;;;;;;8.18;6.20;;;21.20;99.90;;;;;;5015353;28;20057;-73
2023/05/05 08:08:00;;;;;;;9.32;6.43;;;21.80;99.90;;;;;;4997585;28;20129;-73
2023/05/05 08:10:27;;;;;;;13.55;6.93;;;22.10;99.90;;;;;;5014895;28;20196;-73
2023/05/05 08:12:53;;;;;;;11.55;7.53;;;22.20;99.90;;;;;;5014759;28;20049;-73
2023/05/05 08:15:19;;;;;;;7.05;6.32;;;22.60;99.90;;;;;;4997532;28;20046;-72
2023/05/05 08:17:47;;;;;;;10.55;7.20;;;23.10;99.90;;;;;;5014724;28;20435;-72
2023/05/05 08:20:13;;;;;;;9.18;6.70;;;23.20;99.90;;;;;;5014800;28;20080;-73
2023/05/05 08:22:40;;;;;;;8.52;7.10;;;23.80;99.90;;;;;;5014899;28;20046;-73
2023/05/05 08:25:06;;;;;;;8.40;7.32;;;23.70;99.90;;;;;;4997304;28;20082;-73
2023/05/05 08:27:34;;;;;;;9.48;7.53;;;23.90;99.90;;;;;;5014830;28;20084;-73
2023/05/05 08:30:00;;;;;;;9.25;6.75;;;24.20;99.90;;;;;;5014609;28;20089;-73
2023/05/05 08:32:26;;;;;;;12.32;7.40;;;24.50;99.90;;;;;;4996919;28;20045;-73
2023/05/05 08:34:52;;;;;;;8.90;7.80;;;24.60;99.90;;;;;;5014180;28;20597;-73
2023/05/05 08:37:17;;;;;;;10.00;7.07;;;24.50;99.90;;;;;;5014936;28;20119;-73
2023/05/05 08:39:43;;;;;;;9.07;7.22;;;24.40;99.90;;;;;;5014403;28;20046;-73
2023/05/05 08:42:09;;;;;;;10.60;8.00;;;24.30;99.90;;;;;;5014458;28;20142;-73
2023/05/05 08:44:35;;;;;;;7.70;6.97;;;23.50;99.90;;;;;;5014335;28;20052;-73
2023/05/05 08:47:01;;;;;;;12.35;8.02;;;23.80;99.90;;;;;;5013959;28;20046;-73
2023/05/05 08:49:36;;;;;;;8.88;7.97;;;24.00;99.90;;;;;;5014203;28;20111;-73
2023/05/05 08:52:04;;;;;;;7.70;6.90;;;24.10;99.90;;;;;;5014326;28;20112;-73
2023/05/05 08:54:33;;;;;;;8.85;8.02;;;24.60;99.90;;;;;;4996760;28;20046;-73
2023/05/05 08:57:02;;;;;;;8.15;7.32;;;24.20;99.90;;;;;;5014570;28;20125;-73
2023/05/05 08:59:30;;;;;;;9.35;8.10;;;24.10;99.90;;;;;;5014036;28;20062;-75
2023/05/05 09:01:57;;;;;;;9.13;7.72;;;23.70;99.90;;;;;;5013824;28;20133;-72
2023/05/05 09:04:23;;;;;;;10.02;8.27;;;23.40;99.90;;;;;;5013588;28;20050;-73
2023/05/05 09:06:49;;;;;;;10.23;8.40;;;23.40;99.90;;;;;;5013884;28;20068;-73
2023/05/05 09:09:15;;;;;;;9.68;8.15;;;23.70;99.90;;;;;;4997156;28;20157;-73
2023/05/05 09:11:43;;;;;;;9.75;7.85;;;24.00;99.90;;;;;;5014192;28;20050;-73
2023/05/05 09:14:09;;;;;;;12.95;8.43;;;24.00;99.90;;;;;;5013580;28;20160;-74
2023/05/05 09:16:34;;;;;;;11.50;8.82;;;24.70;99.90;;;;;;5013453;28;20170;-73
2023/05/05 09:19:03;;;;;;;9.98;8.93;;;24.70;99.90;;;;;;4995934;28;20046;-73
2023/05/05 09:21:29;;;;;;;10.48;8.40;;;25.20;99.90;;;;;;5013444;28;20046;-73
2023/05/05 09:24:09;;;;;;;10.82;9.32;;;25.20;99.90;;;;;;4996065;28;20046;-73
2023/05/05 09:26:41;;;;;;;9.88;7.30;;;25.40;93.60;;;;;;5013220;28;20150;-73
2023/05/05 09:29:07;;;;;;;11.32;7.93;;;25.40;99.90;;;;;;5013206;28;20459;-73
2023/05/05 09:31:34;;;;;;;10.65;9.45;;;25.60;99.90;;;;;;5013128;28;20049;-72
2023/05/05 09:34:00;;;;;;;15.95;9.48;;;26.00;99.90;;;;;;5012789;28;20066;-73
2023/05/05 09:36:47;;;;;;;12.80;9.93;;;25.90;99.90;;;;;;4995756;28;20049;-75
2023/05/05 09:39:18;;;;;;;10.23;9.02;;;25.70;94.20;;;;;;4996324;28;20050;-75
2023/05/05 09:41:45;;;;;;;10.52;8.63;;;25.80;99.90;;;;;;5012966;28;20053;-74
2023/05/05 09:44:14;;;;;;;12.45;8.98;;;26.00;99.90;;;;;;5012468;28;20088;-74
2023/05/05 09:46:50;;;;;;;11.18;9.45;;;26.40;99.90;;;;;;5012933;28;20394;-73
2023/05/05 09:49:22;;;;;;;12.10;9.70;;;26.10;99.90;;;;;;4995379;28;20085;-74
2023/05/05 09:51:48;;;;;;;10.82;9.73;;;25.80;99.90;;;;;;5013408;28;20049;-74
2023/05/05 09:54:28;;;;;;;9.90;8.90;;;25.10;99.90;;;;;;4995518;28;20046;-74
2023/05/05 09:56:55;;;;;;;10.18;9.05;;;24.70;96.70;;;;;;5013134;28;20079;-74
2023/05/05 09:59:21;;;;;;;11.85;9.50;;;24.60;99.90;;;;;;5012718;28;20475;-74
2023/05/05 10:01:49;;;;;;;9.68;8.68;;;24.90;99.90;;;;;;5012765;28;20076;-73
2023/05/05 10:04:28;;;;;;;9.75;8.75;;;24.60;99.90;;;;;;5012793;28;20054;-73
2023/05/05 10:06:55;;;;;;;12.73;10.35;;;24.00;99.90;;;;;;5013262;28;20046;-74
2023/05/05 10:09:22;;;;;;;12.50;9.95;;;23.70;99.90;;;;;;4995948;28;20058;-73
2023/05/05 10:11:48;;;;;;;11.18;9.38;;;23.30;99.90;;;;;;5013034;28;20045;-74
2023/05/05 10:14:16;;;;;;;10.75;9.60;;;22.70;99.90;;;;;;5012721;28;20061;-74
2023/05/05 10:16:48;;;;;;;11.25;10.05;;;22.30;99.90;;;;;;5012523;28;20478;-73
2023/05/05 10:19:15;;;;;;;11.65;9.57;;;22.90;99.90;;;;;;4995232;28;20068;-74
2023/05/05 10:21:58;;;;;;;13.55;10.57;;;23.60;99.90;;;;;;4994591;28;20411;-73
2023/05/05 10:24:41;;;;;;;;;;;24.40;99.90;;;;;;5013086;28;20060;-74
2023/05/05 10:27:12;;;;;;;;;;;24.60;95.60;;;;;;5012791;28;19927;-74
2023/05/05 10:29:58;;;;;;;12.23;9.98;;;25.00;95.30;;;;;;5012473;28;19922;-73
2023/05/05 10:32:55;;;;;;;11.77;10.05;;;25.40;99.50;;;;;;5012467;28;20517;-73
2023/05/05 10:35:22;;;;;;;11.52;9.82;;;25.80;96.40;;;;;;5012386;28;20056;-73
2023/05/05 10:37:48;;;;;;;13.48;10.52;;;26.20;99.90;;;;;;4995349;28;20077;-73
2023/05/05 10:40:15;;;;;;;16.00;12.18;;;26.10;99.90;;;;;;4995138;28;20062;-73
2023/05/05 10:42:41;;;;;;;12.52;11.23;;;25.50;99.90;;;;;;5012100;28;20057;-73
2023/05/05 10:45:07;;;;;;;12.63;10.63;;;24.70;99.90;;;;;;5013073;28;20089;-73
2023/05/05 10:47:34;;;;;;;13.48;12.00;;;24.30;99.90;;;;;;5012787;28;20467;-73
2023/05/05 10:50:16;;;;;;;17.15;13.05;;;24.00;99.90;;;;;;5012179;28;20065;-73
2023/05/05 10:52:53;;;;;;;15.48;12.93;;;23.90;98.60;;;;;;5012251;28;20069;-73
2023/05/05 10:55:43;;;;;;;14.48;12.48;;;24.00;98.50;;;;;;5012763;28;20052;-73
2023/05/05 10:58:46;;;;;;;13.43;10.43;;;24.00;98.10;;;;;;4998450;28;20438;-73
2023/05/05 11:01:35;;;;;;;14.60;10.38;;;23.70;96.40;;;;;;5015919;28;20050;-73
2023/05/05 11:04:21;;;;;;;13.38;10.35;;;23.40;95.80;;;;;;5015889;28;20491;-73
2023/05/05 11:07:08;;;;;;;18.10;13.23;;;23.00;95.80;;;;;;5015893;28;20431;-73
2023/05/05 11:09:37;;;;;;;14.65;10.98;;;22.80;97.80;;;;;;5015959;28;20103;-73
2023/05/05 11:12:05;;;;;;;13.82;11.10;;;22.90;99.70;;;;;;5015922;28;20060;-73
2023/05/05 11:14:30;;;;;;;13.05;11.65;;;23.10;99.40;;;;;;5015641;28;20057;-73
2023/05/05 11:16:56;;;;;;;13.20;11.18;;;23.20;98.10;;;;;;5016105;28;20045;-73
2023/05/05 11:19:44;;;;;;;14.95;10.70;;;23.20;98.70;;;;;;5016048;28;20514;-73
2023/05/05 11:22:10;;;;;;;17.55;12.02;;;23.10;97.50;;;;;;5015273;28;20482;-73
2023/05/05 11:24:36;;;;;;;15.90;12.00;;;23.20;98.60;;;;;;5015724;28;20053;-73
2023/05/05 11:27:03;;;;;;;13.50;10.80;;;23.30;98.80;;;;;;5015693;28;20042;-73
2023/05/05 11:30:03;;;;;;;12.70;10.18;;;23.20;98.70;;;;;;5015706;28;20076;-73
2023/05/05 11:32:29;;;;;;;15.55;11.27;;;23.20;97.50;;;;;;5015002;28;20119;-73
2023/05/05 11:34:55;;;;;;;13.57;10.63;;;23.30;98.60;;;;;;4998297;28;20471;-73
2023/05/05 11:37:25;;;;;;;14.32;11.15;;;22.90;97.70;;;;;;4997953;28;20057;-73
2023/05/05 11:40:03;;;;;;;15.63;10.25;;;22.90;98.30;;;;;;4997718;28;20045;-73
2023/05/05 11:42:29;;;;;;;12.88;10.30;;;22.90;97.90;;;;;;4997854;28;20046;-73
2023/05/05 11:44:55;;;;;;;14.75;10.45;;;22.80;97.70;;;;;;5015137;28;20053;-72
2023/05/05 11:47:21;;;;;;;11.95;10.02;;;22.80;97.60;;;;;;5015055;28;20050;-73
2023/05/05 11:49:48;;;;;;;12.10;10.45;;;22.70;97.90;;;;;;5015066;28;20049;-73
2023/05/05 11:52:14;;;;;;;12.55;10.85;;;22.70;98.20;;;;;;5015066;28;20053;-73
2023/05/05 11:54:49;;;;;;;13.20;10.70;;;22.70;98.10;;;;;;5014914;28;20050;-73
2023/05/05 11:57:19;;;;;;;12.88;10.02;;;22.70;98.20;;;;;;5015498;28;20097;-73
2023/05/05 12:00:03;;;;;;;15.30;11.73;;;22.70;98.20;;;;;;5014928;28;20053;-74
2023/05/05 12:02:30;;;;;;;20.60;11.95;;;22.70;97.20;;;;;;5014753;28;20176;-73
2023/05/05 12:04:57;;;;;;;15.02;11.68;;;22.90;98.40;;;;;;5014883;28;20050;-73
2023/05/05 12:07:25;;;;;;;20.45;11.68;;;22.60;98.50;;;;;;4997067;28;20084;-73
2023/05/05 12:09:52;;;;;;;12.70;9.40;;;22.50;98.10;;;;;;5015469;28;20065;-73
2023/05/05 12:12:18;;;;;;;13.77;10.45;;;22.40;98.50;;;;;;4997121;28;20494;-73
2023/05/05 12:14:53;;;;;;;13.85;10.50;;;22.50;98.20;;;;;;5014698;28;20054;-73
2023/05/05 12:17:19;;;;;;;13.55;9.98;;;22.40;97.00;;;;;;5014851;28;20559;-74
2023/05/05 12:19:53;;;;;;;12.60;9.48;;;22.60;98.80;;;;;;5014346;28;20506;-73
2023/05/05 12:22:23;;;;;;;14.15;8.85;;;22.60;97.90;;;;;;4997841;28;20418;-74
2023/05/05 12:25:00;;;;;;;13.23;9.45;;;22.60;98.40;;;;;;5014423;28;20045;-74
2023/05/05 12:27:27;;;;;;;11.90;9.25;;;22.40;97.80;;;;;;5014566;28;20042;-74
2023/05/05 12:29:54;;;;;;;10.02;7.97;;;22.40;98.60;;;;;;5014306;28;20129;-73
2023/05/05 12:32:26;;;;;;;9.85;8.43;;;22.60;98.60;;;;;;4997351;28;20062;-73
2023/05/05 12:34:55;;;;;;;11.00;8.70;;;22.30;97.60;;;;;;5014238;28;20054;-74
2023/05/05 12:37:22;;;;;;;11.38;7.95;;;22.30;98.40;;;;;;4996963;28;20050;-73
2023/05/05 12:39:48;;;;;;;14.32;9.02;;;22.20;97.90;;;;;;5014156;28;20050;-74
2023/05/05 12:42:14;;;;;;;13.50;8.88;;;22.30;98.60;;;;;;4996472;28;20057;-74
2023/05/05 12:44:42;;;;;;;12.65;9.13;;;22.20;98.80;;;;;;4996691;28;20053;-74
2023/05/05 12:47:10;;;;;;;10.65;7.25;;;22.20;98.70;;;;;;5013820;28;20037;-74
2023/05/05 12:49:49;;;;;;;10.60;6.95;;;22.00;97.70;;;;;;5014100;28;20041;-74